Time;durP1;ratioP1;P1;durP2;ratioP2;P2;SDS_P1;SDS_P2;PMS_P1;PMS_P2;Temp;Humidity;BMP_temperature;BMP_pressure;BME280_temperature;BME280_humidity;BME280_pressure;Samples;Min_cycle;Max_cycle;Signal;HPM_P1;HPM_P2
2022/09/12 00:00:09;;;;;;;6.07;5.30;;;;;;;14.45;100.00;99264.34;5046096;28;20204;-84
2022/09/12 00:02:38;;;;;;;8.07;5.57;;;;;;;14.45;100.00;99267.00;5046059;28;20190;-84
2022/09/12 00:05:07;;;;;;;6.83;4.93;;;;;;;14.51;100.00;99268.38;5048862;28;20216;-84
2022/09/12 00:07:36;;;;;;;8.53;5.47;;;;;;;14.42;100.00;99263.72;5046622;28;20204;-84
2022/09/12 00:10:05;;;;;;;5.90;5.30;;;;;;;14.43;100.00;99268.94;5014860;28;20193;-84
2022/09/12 00:12:35;;;;;;;6.63;5.30;;;;;;;14.30;100.00;99266.38;5011145;28;20201;-84
2022/09/12 00:15:05;;;;;;;6.93;5.40;;;;;;;14.25;100.00;99257.88;4990213;28;20195;-84
2022/09/12 00:17:35;;;;;;;8.13;5.43;;;;;;;14.38;100.00;99262.25;4984697;28;20237;-84
2022/09/12 00:20:06;;;;;;;7.27;4.97;;;;;;;14.09;100.00;99253.84;4989214;28;20199;-85
2022/09/12 00:22:36;;;;;;;8.97;5.07;;;;;;;14.09;100.00;99262.72;4988101;28;20191;-84
2022/09/12 00:25:08;;;;;;;6.33;4.70;;;;;;;14.27;100.00;99263.09;4991548;28;20250;-84
2022/09/12 00:27:40;;;;;;;6.03;4.73;;;;;;;14.17;100.00;99257.63;4991788;28;20195;-84
2022/09/12 00:30:09;;;;;;;4.97;4.47;;;;;;;14.14;100.00;99257.88;4994945;28;20310;-84
2022/09/12 00:32:38;;;;;;;5.13;4.20;;;;;;;14.15;100.00;99256.03;4946915;29;20402;-84
2022/09/12 00:35:08;;;;;;;5.47;4.50;;;;;;;14.21;100.00;99253.78;4952939;29;20192;-84
2022/09/12 00:37:36;;;;;;;5.57;4.63;;;;;;;14.19;100.00;99261.03;4952935;29;20200;-84
2022/09/12 00:40:05;;;;;;;6.43;4.43;;;;;;;14.09;100.00;99248.53;4970688;28;20226;-84
2022/09/12 00:42:34;;;;;;;5.43;4.37;;;;;;;13.93;100.00;99257.69;4993446;28;20261;-84
2022/09/12 00:45:04;;;;;;;7.60;4.50;;;;;;;13.99;100.00;99254.59;4989493;28;20277;-84
2022/09/12 00:47:36;;;;;;;5.13;4.30;;;;;;;13.92;100.00;99252.50;4992769;28;20195;-84
2022/09/12 00:50:09;;;;;;;6.80;4.53;;;;;;;13.91;100.00;99251.66;4990387;28;20199;-84
2022/09/12 00:52:44;;;;;;;6.00;4.57;;;;;;;13.89;100.00;99250.91;4992833;28;20214;-84
2022/09/12 00:55:16;;;;;;;7.77;4.77;;;;;;;13.91;100.00;99242.81;4988814;28;20230;-84
2022/09/12 00:57:51;;;;;;;8.13;4.97;;;;;;;13.71;100.00;99247.84;4992887;28;20195;-85
2022/09/12 01:00:23;;;;;;;5.40;4.90;;;;;;;13.80;100.00;99245.41;4985283;28;20285;-84
2022/09/12 01:02:55;;;;;;;9.03;4.87;;;;;;;13.71;100.00;99254.97;5004121;28;20199;-84
2022/09/12 01:05:26;;;;;;;5.80;4.57;;;;;;;13.67;100.00;99249.00;5090150;28;20251;-84
2022/09/12 01:07:56;;;;;;;5.13;4.63;;;;;;;13.59;100.00;99248.75;5096806;28;20234;-84
2022/09/12 01:10:25;;;;;;;6.13;4.50;;;;;;;13.54;100.00;99247.41;5092544;28;20195;-84
2022/09/12 01:12:54;;;;;;;5.83;5.23;;;;;;;13.61;100.00;99248.66;5085330;28;20223;-84
2022/09/12 01:15:24;;;;;;;6.07;4.90;;;;;;;13.72;100.00;99257.53;5082723;28;20196;-85
2022/09/12 01:18:09;;;;;;;8.87;5.10;;;;;;;13.75;100.00;99248.44;5092823;28;20248;-84
2022/09/12 01:20:56;;;;;;;5.97;5.20;;;;;;;13.72;100.00;99249.53;5085150;28;20627;-84
2022/09/12 01:24:03;;;;;;;6.63;5.43;;;;;;;13.52;100.00;99244.84;5087391;28;20232;-84
2022/09/12 01:27:08;;;;;;;6.77;4.90;;;;;;;13.50;100.00;99244.09;5093043;28;20281;-84
2022/09/12 01:29:57;;;;;;;5.20;4.67;;;;;;;13.56;100.00;99243.66;5091457;28;20191;-84
2022/09/12 01:32:38;;;;;;;8.27;4.63;;;;;;;13.54;100.00;99240.28;5028674;28;20273;-84
2022/09/12 01:35:15;;;;;;;6.67;4.93;;;;;;;13.59;100.00;99246.06;5028901;28;20197;-84
2022/09/12 01:37:54;;;;;;;5.90;5.17;;;;;;;13.56;100.00;99242.81;5025820;28;20252;-84
2022/09/12 01:40:30;;;;;;;6.80;5.07;;;;;;;13.45;100.00;99244.47;5028582;28;20244;-84
2022/09/12 01:43:10;;;;;;;5.57;4.90;;;;;;;13.57;100.00;99241.84;5026148;28;20194;-84
2022/09/12 01:45:45;;;;;;;5.50;5.00;;;;;;;13.50;100.00;99233.47;5027080;28;20209;-84
2022/09/12 01:48:20;;;;;;;6.73;4.43;;;;;;;13.34;100.00;99249.72;5024192;28;20193;-84
2022/09/12 01:50:59;;;;;;;6.87;5.33;;;;;;;13.49;100.00;99244.22;5073862;28;20192;-84
2022/09/12 01:53:33;;;;;;;7.70;5.10;;;;;;;13.45;100.00;99246.28;5086526;28;20251;-84
2022/09/12 01:56:07;;;;;;;6.80;5.07;;;;;;;13.32;100.00;99249.00;5087741;28;20249;-84
2022/09/12 01:58:41;;;;;;;7.47;4.70;;;;;;;13.27;100.00;99245.81;5089301;28;20196;-84
2022/09/12 02:01:15;;;;;;;6.30;4.77;;;;;;;13.36;100.00;99236.31;5088938;28;20222;-84
2022/09/12 02:03:48;;;;;;;5.83;4.70;;;;;;;13.34;100.00;99233.78;5009265;28;20217;-83
2022/09/12 02:06:22;;;;;;;6.03;4.87;;;;;;;13.32;100.00;99230.38;5005728;28;20214;-84
2022/09/12 02:08:56;;;;;;;7.27;5.10;;;;;;;13.30;100.00;99226.97;5009073;28;20265;-84
2022/09/12 02:11:24;;;;;;;8.67;5.70;;;;;;;13.20;100.00;99239.25;5009642;28;20244;-84
2022/09/12 02:13:56;;;;;;;6.87;5.60;;;;;;;13.25;100.00;99226.47;5009682;28;20201;-84
2022/09/12 02:16:34;;;;;;;6.20;5.60;;;;;;;13.28;100.00;99220.06;5005817;28;20204;-84
2022/09/12 02:19:10;;;;;;;7.73;5.33;;;;;;;13.39;100.00;99225.44;4975883;28;20214;-84
2022/09/12 02:21:42;;;;;;;7.57;5.70;;;;;;;13.33;100.00;99223.25;4977850;28;20277;-84
2022/09/12 02:24:14;;;;;;;6.37;5.27;;;;;;;13.27;100.00;99221.03;5023192;28;20197;-84
2022/09/12 02:26:50;;;;;;;6.67;5.00;;;;;;;13.18;100.00;99218.06;4950219;28;20223;-84
2022/09/12 02:29:18;;;;;;;5.53;4.93;;;;;;;13.15;100.00;99210.31;4897198;29;20248;-84
2022/09/12 02:31:57;;;;;;;5.57;4.97;;;;;;;13.20;100.00;99215.31;4896023;29;20216;-84
2022/09/12 02:34:40;;;;;;;7.53;4.50;;;;;;;13.12;100.00;99207.00;4897813;29;20233;-84
2022/09/12 02:37:18;;;;;;;5.60;4.93;;;;;;;13.29;100.00;99214.63;4897183;29;20334;-84
2022/09/12 02:39:47;;;;;;;7.00;5.03;;;;;;;13.33;100.00;99216.13;4924262;29;20236;-84
2022/09/12 02:42:15;;;;;;;6.27;5.40;;;;;;;13.33;100.00;99221.44;4897318;29;20206;-84
2022/09/12 02:44:44;;;;;;;5.60;5.00;;;;;;;13.34;100.00;99216.97;4895069;29;20748;-84
2022/09/12 02:47:20;;;;;;;6.13;4.83;;;;;;;13.15;100.00;99220.94;4917352;29;20248;-83
2022/09/12 02:49:50;;;;;;;5.73;4.20;;;;;;;13.11;100.00;99216.78;4953255;29;20208;-83
2022/09/12 02:52:19;;;;;;;5.40;4.40;;;;;;;13.07;100.00;99214.50;4946739;29;20287;-84
2022/09/12 02:54:50;;;;;;;7.17;4.80;;;;;;;13.04;100.00;99212.91;4950212;29;20207;-84
2022/09/12 02:57:22;;;;;;;5.60;4.00;;;;;;;13.04;100.00;99209.41;4963541;28;20222;-84
2022/09/12 02:59:55;;;;;;;5.60;4.80;;;;;;;13.09;100.00;99205.44;5042542;28;20187;-84
2022/09/12 03:02:31;;;;;;;5.33;4.80;;;;;;;13.17;100.00;99203.06;5083965;28;20200;-84
2022/09/12 03:05:16;;;;;;;6.00;5.00;;;;;;;13.19;100.00;99202.97;5081828;28;20327;-84
2022/09/12 03:08:05;;;;;;;5.50;5.00;;;;;;;13.14;100.00;99203.28;5091451;28;20223;-84
2022/09/12 03:10:41;;;;;;;5.50;4.90;;;;;;;13.13;100.00;99198.09;5084016;28;20192;-84
2022/09/12 03:13:23;;;;;;;5.50;4.90;;;;;;;13.16;100.00;99203.19;5088608;28;20203;-84
2022/09/12 03:16:04;;;;;;;6.97;5.03;;;;;;;13.10;100.00;99206.28;5091385;28;20203;-84
2022/09/12 03:18:43;;;;;;;6.90;4.80;;;;;;;12.95;100.00;99210.06;5086976;28;20195;-84
2022/09/12 03:21:23;;;;;;;4.93;4.30;;;;;;;12.86;100.00;99204.47;5086140;28;20195;-84
2022/09/12 03:24:12;;;;;;;4.60;4.10;;;;;;;12.86;100.00;99199.16;5085668;28;20194;-85
2022/09/12 03:26:48;;;;;;;4.47;4.00;;;;;;;12.83;100.00;99199.34;5090839;28;20634;-84
2022/09/12 03:29:19;;;;;;;6.33;4.77;;;;;;;12.80;100.00;99198.72;5081745;28;20199;-84
2022/09/12 03:31:51;;;;;;;5.70;4.60;;;;;;;12.87;100.00;99205.31;5006003;28;20206;-84
2022/09/12 03:34:20;;;;;;;6.83;4.87;;;;;;;12.85;100.00;99193.94;5008747;28;20277;-83
2022/09/12 03:36:54;;;;;;;6.47;4.60;;;;;;;12.80;100.00;99202.25;5008849;28;20213;-84
2022/09/12 03:39:27;;;;;;;6.57;5.10;;;;;;;12.79;100.00;99205.84;4923613;29;20243;-83
2022/09/12 03:41:56;;;;;;;6.63;5.30;;;;;;;12.79;100.00;99205.84;4975069;29;20199;-84
2022/09/12 03:44:25;;;;;;;5.70;5.10;;;;;;;12.80;100.00;99209.38;4947828;29;20208;-84
2022/09/12 03:46:54;;;;;;;5.90;5.10;;;;;;;12.74;100.00;99205.34;4944131;29;20216;-85
2022/09/12 03:49:22;;;;;;;7.57;5.40;;;;;;;12.71;100.00;99207.38;4872532;29;20199;-84
2022/09/12 03:51:53;;;;;;;8.43;5.50;;;;;;;12.71;100.00;99210.03;4871622;29;20195;-84
2022/09/12 03:54:21;;;;;;;7.37;5.50;;;;;;;12.66;100.00;99204.22;4875105;29;20238;-84
2022/09/12 03:56:49;;;;;;;9.33;5.13;;;;;;;12.67;100.00;99216.53;4907979;28;20276;-83
2022/09/12 03:59:19;;;;;;;8.50;5.50;;;;;;;12.65;100.00;99210.50;4968949;28;20196;-83
2022/09/12 04:01:51;;;;;;;8.57;5.37;;;;;;;12.78;100.00;99211.28;4915039;29;20229;-84
2022/09/12 04:04:19;;;;;;;7.60;5.43;;;;;;;12.81;100.00;99216.38;4910364;29;20221;-83
2022/09/12 04:06:48;;;;;;;6.00;5.40;;;;;;;12.75;100.00;99207.06;4920413;28;20220;-84
2022/09/12 04:09:18;;;;;;;6.30;5.70;;;;;;;12.77;100.00;99215.75;4969891;28;20239;-84
2022/09/12 04:11:46;;;;;;;7.30;5.87;;;;;;;12.67;100.00;99216.53;4965115;28;20227;-84
2022/09/12 04:14:15;;;;;;;6.43;5.77;;;;;;;12.72;100.00;99222.34;5000102;28;20229;-84
2022/09/12 04:16:43;;;;;;;6.80;6.10;;;;;;;12.60;100.00;99216.97;5025644;28;20201;-84
2022/09/12 04:19:12;;;;;;;9.37;6.23;;;;;;;12.66;100.00;99225.47;5023833;28;20194;-84
2022/09/12 04:21:42;;;;;;;7.53;5.83;;;;;;;12.71;100.00;99218.00;4985870;28;20203;-83
2022/09/12 04:24:11;;;;;;;7.13;6.40;;;;;;;12.74;100.00;99210.69;4984903;28;20207;-86
2022/09/12 04:26:42;;;;;;;6.90;6.00;;;;;;;12.69;100.00;99212.78;5022896;28;20223;-87
2022/09/12 04:29:13;;;;;;;7.03;5.50;;;;;;;12.61;100.00;99213.34;5006257;28;20194;-85
2022/09/12 04:31:42;;;;;;;6.07;4.80;;;;;;;12.74;100.00;99208.00;5005307;28;20190;-85
2022/09/12 04:34:11;;;;;;;7.37;6.20;;;;;;;12.66;100.00;99201.56;5008754;28;20237;-85
2022/09/12 04:36:40;;;;;;;7.70;6.40;;;;;;;12.53;100.00;99206.88;5008763;28;20316;-85
2022/09/12 04:39:10;;;;;;;7.10;5.63;;;;;;;12.60;100.00;99205.47;5008146;28;20283;-85
2022/09/12 04:41:42;;;;;;;8.63;6.47;;;;;;;12.71;100.00;99210.03;5047114;28;20228;-85
2022/09/12 04:44:14;;;;;;;9.23;7.03;;;;;;;12.70;100.00;99209.19;5046805;28;20216;-84
2022/09/12 04:46:45;;;;;;;9.43;6.80;;;;;;;12.67;100.00;99212.06;5055954;28;20241;-84
2022/09/12 04:49:18;;;;;;;9.30;7.60;;;;;;;12.65;100.00;99219.31;5087145;28;20195;-85
2022/09/12 04:51:47;;;;;;;7.33;6.60;;;;;;;12.70;100.00;99221.63;5083356;28;20202;-85
2022/09/12 04:54:17;;;;;;;7.83;6.87;;;;;;;12.77;100.00;99212.25;5093110;28;20192;-85
2022/09/12 04:56:48;;;;;;;8.57;6.10;;;;;;;12.64;100.00;99219.38;5083131;28;20226;-85
2022/09/12 04:59:19;;;;;;;9.10;6.27;;;;;;;12.65;100.00;99231.75;5087654;28;20203;-85
2022/09/12 05:01:50;;;;;;;7.63;6.50;;;;;;;12.65;100.00;99221.13;5089330;28;20253;-85
2022/09/12 05:04:20;;;;;;;7.93;6.43;;;;;;;12.59;100.00;99215.25;5084095;28;20200;-85
2022/09/12 05:06:49;;;;;;;7.63;6.17;;;;;;;12.54;100.00;99220.03;5083034;28;20203;-85
2022/09/12 05:09:18;;;;;;;8.23;6.53;;;;;;;12.54;100.00;99216.53;5078908;28;20670;-85
2022/09/12 05:11:48;;;;;;;10.10;6.33;;;;;;;12.50;100.00;99215.91;5085836;28;20223;-85
2022/09/12 05:14:34;;;;;;;6.83;6.07;;;;;;;12.50;100.00;99215.91;5039662;28;20291;-85
2022/09/12 05:17:04;;;;;;;7.17;6.47;;;;;;;12.60;100.00;99216.13;5083861;28;20195;-85
2022/09/12 05:19:33;;;;;;;10.87;6.30;;;;;;;12.64;100.00;99212.25;5085893;28;20231;-86
2022/09/12 05:22:03;;;;;;;8.60;6.50;;;;;;;12.59;100.00;99214.41;5086769;28;20192;-85
2022/09/12 05:24:32;;;;;;;9.13;6.53;;;;;;;12.54;100.00;99220.03;5082996;28;20322;-85
2022/09/12 05:27:03;;;;;;;9.13;6.50;;;;;;;12.46;100.00;99214.44;5089127;28;20188;-84
2022/09/12 05:29:32;;;;;;;7.87;6.00;;;;;;;12.44;100.00;99213.69;5086248;28;20223;-84
2022/09/12 05:32:02;;;;;;;9.03;6.57;;;;;;;12.53;100.00;99225.47;5083656;28;20269;-84
2022/09/12 05:34:31;;;;;;;8.33;5.83;;;;;;;12.49;100.00;99224.84;5091005;28;20229;-84
2022/09/12 05:37:00;;;;;;;7.43;6.13;;;;;;;12.57;100.00;99224.31;5088989;28;20192;-84
2022/09/12 05:39:28;;;;;;;7.37;6.27;;;;;;;12.67;100.00;99224.50;5063736;28;20205;-84
2022/09/12 05:41:57;;;;;;;11.47;7.07;;;;;;;12.61;100.00;99221.31;5060444;28;20200;-84
2022/09/12 05:44:27;;;;;;;9.70;6.70;;;;;;;12.72;100.00;99217.03;5066046;28;20185;-84
2022/09/12 05:46:55;;;;;;;7.67;6.60;;;;;;;12.83;100.00;99217.94;5066394;28;20192;-84
2022/09/12 05:49:24;;;;;;;6.83;6.00;;;;;;;12.84;100.00;99226.81;5065226;28;20251;-84
2022/09/12 05:51:52;;;;;;;10.57;6.70;;;;;;;12.85;100.00;99225.84;5057512;28;20223;-84
2022/09/12 05:54:21;;;;;;;10.93;7.13;;;;;;;12.79;100.00;99227.13;5069114;28;20321;-84
2022/09/12 05:56:49;;;;;;;7.17;6.23;;;;;;;12.84;100.00;99225.00;5071147;28;20238;-85
2022/09/12 05:59:20;;;;;;;7.57;6.77;;;;;;;12.79;100.00;99235.09;5088704;28;20211;-84
2022/09/12 06:01:51;;;;;;;7.87;7.03;;;;;;;12.99;100.00;99225.69;5078385;28;20643;-84
2022/09/12 06:04:19;;;;;;;8.33;6.70;;;;;;;13.00;100.00;99230.03;5087603;28;20207;-85
2022/09/12 06:06:48;;;;;;;8.90;7.33;;;;;;;12.99;100.00;99231.00;5088969;28;20216;-86
2022/09/12 06:09:18;;;;;;;7.70;6.90;;;;;;;13.03;100.00;99231.66;5088327;28;20265;-85
2022/09/12 06:11:47;;;;;;;8.27;7.10;;;;;;;13.13;100.00;99228.19;4993017;28;20207;-85
2022/09/12 06:14:18;;;;;;;9.40;7.00;;;;;;;13.09;100.00;99228.50;4991491;28;20207;-84
2022/09/12 06:16:47;;;;;;;9.53;7.70;;;;;;;13.13;100.00;99230.00;4989663;28;20195;-84
2022/09/12 06:19:19;;;;;;;10.77;8.17;;;;;;;13.13;100.00;99227.34;4991714;28;20197;-84
2022/09/12 06:21:50;;;;;;;8.30;7.40;;;;;;;13.24;100.00;99230.09;4991345;28;20222;-84
2022/09/12 06:24:22;;;;;;;10.20;7.50;;;;;;;13.38;100.00;99221.94;4984653;28;20206;-84
2022/09/12 06:26:53;;;;;;;10.27;7.47;;;;;;;13.44;100.00;99221.47;4988658;28;20246;-84
2022/09/12 06:29:21;;;;;;;9.17;7.67;;;;;;;13.43;100.00;99232.25;4957732;28;20261;-85
2022/09/12 06:31:50;;;;;;;8.80;7.50;;;;;;;13.37;100.00;99224.69;4984930;28;20282;-84
2022/09/12 06:34:22;;;;;;;12.37;7.63;;;;;;;13.56;100.00;99226.84;4987350;28;20199;-85
2022/09/12 06:36:51;;;;;;;12.37;7.37;;;;;;;13.55;100.00;99226.00;4987472;28;20226;-85
2022/09/12 06:39:22;;;;;;;9.30;7.20;;;;;;;13.68;100.00;99225.91;4985053;28;20242;-84
2022/09/12 06:41:53;;;;;;;8.40;7.47;;;;;;;13.74;100.00;99230.78;4992274;28;20234;-84
2022/09/12 06:44:22;;;;;;;11.10;7.47;;;;;;;13.91;100.00;99232.16;5086023;28;20277;-85
2022/09/12 06:46:53;;;;;;;8.77;7.83;;;;;;;14.01;100.00;99225.16;5086462;28;20195;-84
2022/09/12 06:49:24;;;;;;;8.60;7.70;;;;;;;14.09;100.00;99219.22;5005224;28;20242;-84
2022/09/12 06:51:53;;;;;;;9.87;7.77;;;;;;;14.15;100.00;99224.09;5009719;28;20406;-85
2022/09/12 06:54:22;;;;;;;9.57;8.00;;;;;;;14.23;100.00;99222.53;5001470;28;20226;-84
2022/09/12 06:56:50;;;;;;;11.10;7.97;;;;;;;14.37;100.00;99216.09;5008468;28;20201;-84
2022/09/12 06:59:20;;;;;;;11.67;8.50;;;;;;;14.47;100.00;99211.78;5007798;28;20252;-84
2022/09/12 07:01:48;;;;;;;9.47;8.53;;;;;;;14.37;100.00;99215.25;5007814;28;20341;-84
2022/09/12 07:04:17;;;;;;;9.83;8.23;;;;;;;14.54;100.00;99222.81;5004103;28;20202;-84
2022/09/12 07:06:47;;;;;;;9.30;8.30;;;;;;;14.68;100.00;99221.72;5025484;28;20188;-85
2022/09/12 07:09:16;;;;;;;11.07;8.23;;;;;;;14.72;100.00;99215.16;5087050;28;20211;-86
2022/09/12 07:11:46;;;;;;;10.67;8.67;;;;;;;14.81;100.00;99209.94;5084296;28;20228;-85
2022/09/12 07:14:15;;;;;;;9.33;8.43;;;;;;;14.96;100.00;99220.31;5089782;28;20198;-85
2022/09/12 07:16:46;;;;;;;10.33;8.97;;;;;;;14.80;100.00;99213.56;5088548;28;20257;-86
2022/09/12 07:19:15;;;;;;;11.97;8.67;;;;;;;15.02;100.00;99209.16;5083866;28;20195;-85
2022/09/12 07:21:44;;;;;;;10.17;8.67;;;;;;;15.30;100.00;99202.41;5086400;28;20237;-85
2022/09/12 07:24:14;;;;;;;11.33;8.87;;;;;;;15.23;100.00;99214.56;5040063;28;20233;-85
2022/09/12 07:26:42;;;;;;;9.47;7.40;;;;;;;15.46;100.00;99203.69;5085141;28;20454;-85
2022/09/12 07:29:15;;;;;;;8.53;7.50;;;;;;;15.70;100.00;99206.13;5020016;28;20260;-85
2022/09/12 07:32:04;;;;;;;10.43;7.90;;;;;;;15.44;100.00;99197.63;5031602;28;20202;-86
2022/09/12 07:34:35;;;;;;;10.53;7.77;;;;;;;15.63;100.00;99204.09;5021871;28;20193;-86
2022/09/12 07:37:04;;;;;;;9.23;8.00;;;;;;;15.41;100.00;99205.88;5029160;28;20296;-85
2022/09/12 07:39:34;;;;;;;11.17;7.67;;;;;;;15.63;100.00;99207.66;5029157;28;20277;-85
2022/09/12 07:42:04;;;;;;;8.50;7.63;;;;;;;16.02;100.00;99199.91;5021438;28;20202;-85
2022/09/12 07:44:33;;;;;;;8.57;7.67;;;;;;;16.26;100.00;99192.44;4964463;28;20192;-85
2022/09/12 07:47:01;;;;;;;8.93;7.83;;;;;;;16.20;100.00;99194.78;4976712;28;20249;-85
2022/09/12 07:49:30;;;;;;;9.10;8.10;;;;;;;16.35;100.00;99181.91;4999594;28;20230;-86
2022/09/12 07:51:58;;;;;;;10.10;7.77;;;;;;;16.21;100.00;99193.78;4998399;28;20653;-86
2022/09/12 07:54:27;;;;;;;7.87;7.03;;;;;;;16.49;100.00;99181.53;5002763;28;20190;-85
2022/09/12 07:56:57;;;;;;;7.93;6.63;;;;;;;16.70;100.00;99182.38;4975315;28;20243;-85
2022/09/12 07:59:27;;;;;;;7.57;6.20;;;;;;;17.01;100.00;99183.13;5005408;28;20205;-85
2022/09/12 08:02:16;;;;;;;6.57;5.90;;;;;;;16.99;100.00;99181.59;5031017;28;20584;-86
2022/09/12 08:04:47;;;;;;;9.30;6.77;;;;;;;16.94;100.00;99176.63;5086578;28;20223;-86
2022/09/12 08:07:17;;;;;;;8.50;6.03;;;;;;;17.36;100.00;99173.72;5086666;28;20215;-86
2022/09/12 08:09:45;;;;;;;9.10;7.03;;;;;;;17.70;100.00;99168.81;5084653;28;20212;-86
2022/09/12 08:12:16;;;;;;;8.67;7.60;;;;;;;17.61;100.00;99169.63;5077467;28;20360;-86
2022/09/12 08:14:46;;;;;;;8.37;7.47;;;;;;;17.61;100.00;99173.16;5081740;28;20203;-85
2022/09/12 08:17:14;;;;;;;6.93;6.23;;;;;;;17.67;100.00;99177.09;5082867;28;20187;-86
2022/09/12 08:19:43;;;;;;;6.33;5.40;;;;;;;17.98;100.00;99170.59;5086813;28;20200;-85
2022/09/12 08:22:12;;;;;;;6.43;5.67;;;;;;;17.92;100.00;99171.16;5031828;28;20192;-86
2022/09/12 08:24:40;;;;;;;8.70;5.40;;;;;;;18.22;100.00;99172.75;5022825;28;20290;-85
2022/09/12 08:27:09;;;;;;;5.43;4.93;;;;;;;18.35;100.00;99166.25;5020073;28;20212;-86
2022/09/12 08:29:39;;;;;;;5.60;5.10;;;;;;;18.64;100.00;99166.94;5021458;28;20289;-86
2022/09/12 08:32:08;;;;;;;6.60;4.90;;;;;;;18.99;100.00;99171.56;5024584;28;20251;-85
2022/09/12 08:34:37;;;;;;;6.97;5.37;;;;;;;18.88;100.00;99172.63;5030977;28;20189;-85
2022/09/12 08:37:05;;;;;;;6.40;5.33;;;;;;;19.17;100.00;99164.38;5026471;28;20193;-86
2022/09/12 08:39:34;;;;;;;6.20;5.17;;;;;;;19.11;100.00;99170.38;5020873;28;20317;-86
2022/09/12 08:42:04;;;;;;;6.37;5.77;;;;;;;18.87;100.00;99168.25;5030239;28;20282;-85
2022/09/12 08:44:56;;;;;;;6.50;5.23;;;;;;;19.03;100.00;99170.28;5084787;28;20231;-86
2022/09/12 08:47:28;;;;;;;10.13;6.67;;;;;;;19.12;100.00;99168.53;5054140;28;20204;-85
2022/09/12 08:50:10;;;;;;;7.00;6.30;;;;;;;19.38;100.00;99166.75;5082441;28;20246;-85
2022/09/12 08:52:44;;;;;;;7.30;6.07;;;;;;;19.53;100.00;99163.53;5081465;28;20235;-85
2022/09/12 08:55:32;;;;;;;6.70;6.00;;;;;;;19.35;100.00;99156.31;5083918;28;20202;-84
2022/09/12 08:58:12;;;;;;;7.10;6.20;;;;;;;19.22;100.00;99161.25;5091120;28;20192;-84
2022/09/12 09:00:53;;;;;;;9.50;7.63;;;;;;;19.52;100.00;99162.69;5084565;28;20221;-84
2022/09/12 09:03:49;;;;;;;10.87;7.97;;;;;;;19.68;100.00;99162.84;5089049;28;20187;-85
2022/09/12 09:06:35;;;;;;;9.53;6.97;;;;;;;19.30;100.00;99155.06;5012317;28;20221;-85
2022/09/12 09:09:10;;;;;;;7.80;6.90;;;;;;;19.37;100.00;99158.84;4982965;28;20291;-85
2022/09/12 09:11:53;;;;;;;8.67;7.43;;;;;;;19.62;100.00;99159.94;4988328;28;20202;-85
2022/09/12 09:15:00;;;;;;;12.57;9.57;;;;;;;19.97;100.00;99153.63;4988745;28;20199;-85
2022/09/12 09:17:38;;;;;;;10.20;7.33;;;;;;;19.63;100.00;99157.09;4991038;28;20658;-84
2022/09/12 09:20:21;;;;;;;9.83;7.60;;;;;;;20.09;100.00;99149.69;4990939;28;20619;-84
2022/09/12 09:22:53;;;;;;;9.90;8.37;;;;;;;19.47;100.00;99150.69;4990532;28;20191;-85
2022/09/12 09:25:26;;;;;;;8.33;7.00;;;;;;;20.10;100.00;99145.16;5051744;28;20196;-85
2022/09/12 09:28:02;;;;;;;9.40;7.33;;;;;;;20.01;100.00;99139.72;5083430;28;20191;-85
2022/09/12 09:30:35;;;;;;;8.00;7.10;;;;;;;20.45;100.00;99139.63;5095937;28;20219;-84
2022/09/12 09:33:11;;;;;;;9.73;8.13;;;;;;;19.98;100.00;99140.06;5089627;28;20191;-85
2022/09/12 09:35:45;;;;;;;8.00;7.03;;;;;;;20.48;100.00;99128.56;5089844;28;20230;-85
2022/09/12 09:38:23;;;;;;;9.43;7.57;;;;;;;20.88;100.00;99129.69;5093455;28;20204;-86
2022/09/12 09:41:07;;;;;;;10.97;7.20;;;;;;;21.18;100.00;99130.09;5090894;28;20195;-87
2022/09/12 09:43:38;;;;;;;8.37;7.27;;;;;;;21.23;100.00;99127.72;5085890;28;20199;-87
2022/09/12 09:46:07;;;;;;;7.90;6.90;;;;;;;21.12;100.00;99129.75;5083406;28;20235;-87
2022/09/12 09:48:41;;;;;;;9.83;8.63;;;;;;;21.28;100.00;99130.81;5091082;28;20253;-87
2022/09/12 09:51:10;;;;;;;11.53;8.97;;;;;;;21.54;100.00;99128.81;5093577;28;20291;-86
2022/09/12 09:53:45;;;;;;;10.67;8.07;;;;;;;21.42;100.00;99122.91;5087711;28;20435;-87
2022/09/12 09:56:26;;;;;;;9.63;7.80;;;;;;;21.55;100.00;99126.94;5085232;28;20195;-85
2022/09/12 09:58:55;;;;;;;10.33;7.80;;;;;;;21.02;100.00;99120.13;5083322;28;20198;-85
2022/09/12 10:01:26;;;;;;;8.80;7.20;;;;;;;21.21;100.00;99121.66;5089754;28;20245;-85
2022/09/12 10:03:56;;;;;;;8.60;7.23;;;;;;;21.27;100.00;99116.50;5085689;28;20696;-84
2022/09/12 10:06:31;;;;;;;10.10;7.80;;;;;;;21.54;100.00;99109.94;5087657;28;20196;-85
2022/09/12 10:09:18;;;;;;;9.03;7.77;;;;;;;21.61;100.00;99107.38;5089184;28;20199;-85
2022/09/12 10:11:50;;;;;;;11.27;8.13;;;;;;;21.61;100.00;99107.38;5053057;28;20244;-85
2022/09/12 10:14:35;;;;;;;9.83;7.70;;;;;;;20.85;100.00;99098.56;5028589;28;20233;-85
2022/09/12 10:17:23;;;;;;;10.27;8.27;;;;;;;20.90;100.00;99103.44;5021067;28;20225;-85
2022/09/12 10:19:59;;;;;;;11.23;9.07;;;;;;;21.25;100.00;99101.47;5032843;28;20190;-84
2022/09/12 10:22:50;;;;;;;11.57;8.73;;;;;;;21.47;100.00;99097.31;5032933;28;20193;-84
2022/09/12 10:25:20;;;;;;;10.87;8.67;;;;;;;21.41;100.00;99094.25;5028118;28;20236;-84
2022/09/12 10:27:56;;;;;;;12.13;8.70;;;;;;;21.82;100.00;99093.41;5017073;28;20206;-85
2022/09/12 10:30:27;;;;;;;12.47;8.63;;;;;;;21.95;100.00;99089.13;5058009;28;20226;-84
2022/09/12 10:33:06;;;;;;;11.10;8.73;;;;;;;21.86;100.00;99092.03;5081938;28;20210;-84
2022/09/12 10:35:48;;;;;;;11.30;7.83;;;;;;;21.82;100.00;99094.22;5087905;28;20195;-85
2022/09/12 10:38:23;;;;;;;12.07;8.63;;;;;;;21.19;100.00;99102.97;5085878;28;20192;-84
2022/09/12 10:40:58;;;;;;;13.60;9.97;;;;;;;21.55;100.00;99100.00;5091762;28;20187;-85
2022/09/12 10:43:30;;;;;;;11.27;9.50;;;;;;;21.71;100.00;99103.53;5083899;28;20228;-84
2022/09/12 10:46:00;;;;;;;11.63;8.97;;;;;;;21.96;100.00;99101.59;5084089;28;20188;-85
2022/09/12 10:48:31;;;;;;;14.47;9.93;;;;;;;22.07;100.00;99100.41;5084348;28;20203;-84
2022/09/12 10:51:05;;;;;;;13.37;10.10;;;;;;;22.20;100.00;99091.81;5089740;28;20208;-85
2022/09/12 10:53:42;;;;;;;14.87;9.93;;;;;;;22.41;100.00;99094.75;5084734;28;20215;-84
2022/09/12 10:56:13;;;;;;;12.07;9.57;;;;;;;22.94;100.00;99093.13;5088132;28;20217;-84
2022/09/12 10:59:00;;;;;;;10.90;8.17;;;;;;;23.16;100.00;99087.91;5087894;28;20674;-84
2022/09/12 11:01:39;;;;;;;11.77;8.48;;;;;;;23.44;100.00;99086.31;5090578;28;20784;-85
2022/09/12 11:04:29;;;;;;;12.00;8.57;;;;;;;23.49;100.00;99077.69;5083021;28;20223;-84
2022/09/12 11:07:14;;;;;;;10.13;8.40;;;;;;;23.25;100.00;99081.41;5081258;28;20635;-84
2022/09/12 11:09:51;;;;;;;11.45;8.38;;;;;;;23.20;100.00;99081.13;5081383;28;20217;-85
2022/09/12 11:12:30;;;;;;;9.95;7.65;;;;;;;23.28;100.00;99071.09;5088247;28;20192;-84
2022/09/12 11:15:15;;;;;;;11.98;8.95;;;;;;;23.44;100.00;99067.41;5028070;28;20194;-84
2022/09/12 11:17:52;;;;;;;10.20;7.80;;;;;;;22.90;100.00;99072.06;5026240;28;20228;-84
2022/09/12 11:20:42;;;;;;;8.18;6.47;;;;;;;23.13;100.00;99072.91;5022846;28;20276;-84
2022/09/12 11:23:47;;;;;;;7.68;6.50;;;;;;;23.09;100.00;99072.44;5031860;28;20747;-84
2022/09/12 11:26:32;;;;;;;8.63;6.57;;;;;;;22.89;100.00;99059.59;5020945;28;20655;-84
2022/09/12 11:29:12;;;;;;;9.27;6.30;;;;;;;23.17;100.00;99066.13;5026575;28;20248;-84
2022/09/12 11:31:57;;;;;;;11.90;6.53;;;;;;;22.76;100.00;99062.81;5031520;28;20253;-84
2022/09/12 11:34:37;;;;;;;5.88;5.22;;;;;;;22.94;100.00;99062.56;5088323;28;20191;-85
2022/09/12 11:37:27;;;;;;;9.50;6.28;;;;;;;22.30;100.00;99057.34;5089021;28;20244;-84
2022/09/12 11:40:05;;;;;;;9.75;6.13;;;;;;;22.82;100.00;99062.13;5086108;28;20296;-84
2022/09/12 11:42:40;;;;;;;7.70;5.95;;;;;;;23.44;99.04;99056.59;5090458;28;20199;-84
2022/09/12 11:45:16;;;;;;;8.60;5.60;;;;;;;23.83;92.80;99064.50;5087551;28;20645;-84
2022/09/12 11:47:49;;;;;;;8.18;5.80;;;;;;;24.50;86.71;99058.16;5088193;28;20197;-84
2022/09/12 11:50:25;;;;;;;10.93;5.82;;;;;;;24.22;84.71;99053.44;5093634;28;20198;-84
2022/09/12 11:52:58;;;;;;;7.68;5.90;;;;;;;24.15;82.08;99055.19;5093317;28;20230;-84